sensor_id;sensor_type;location;lat;lon;timestamp;P1;P2;P0
74436;PMS7003;62868;52.360;30.424;2023-04-01T00:01:03;0.3;0;0
74436;PMS7003;62868;52.360;30.424;2023-04-01T00:05:52;0.3;0;0
74436;PMS7003;62868;52.360;30.424;2023-04-01T00:11:34;0.3;0;0
74436;PMS7003;62868;52.360;30.424;2023-04-01T00:15:53;0.7;0.3;0
74436;PMS7003;62868;52.360;30.424;2023-04-01T00:20:52;0.8;0;0
74436;PMS7003;62868;52.360;30.424;2023-04-01T00:26:14;0;0;0
74436;PMS7003;62868;52.360;30.424;2023-04-01T00:31:03;0.7;0.3;0
74436;PMS7003;62868;52.360;30.424;2023-04-01T00:36:34;0.7;0.3;0
74436;PMS7003;62868;52.360;30.424;2023-04-01T00:41:11;0.3;0.3;0
74436;PMS7003;62868;52.360;30.424;2023-04-01T00:46:02;1;0.7;0
74436;PMS7003;62868;52.360;30.424;2023-04-01T00:51:25;0.7;0;0
74436;PMS7003;62868;52.360;30.424;2023-04-01T00:55:54;0.3;0;0
74436;PMS7003;62868;52.360;30.424;2023-04-01T01:01:30;0.8;0.3;0
74436;PMS7003;62868;52.360;30.424;2023-04-01T01:06:18;0;0;0
74436;PMS7003;62868;52.360;30.424;2023-04-01T01:10:52;0.3;0;0
74436;PMS7003;62868;52.360;30.424;2023-04-01T01:16:27;0.3;0;0
74436;PMS7003;62868;52.360;30.424;2023-04-01T01:20:58;1;0.3;0
74436;PMS7003;62868;52.360;30.424;2023-04-01T01:26:36;0.3;0;0
74436;PMS7003;62868;52.360;30.424;2023-04-01T01:31:03;0.3;0.3;0
74436;PMS7003;62868;52.360;30.424;2023-04-01T01:35:53;0;0;0
74436;PMS7003;62868;52.360;30.424;2023-04-01T01:41:10;0.5;0.3;0
74436;PMS7003;62868;52.360;30.424;2023-04-01T01:46:04;0.3;0;0
74436;PMS7003;62868;52.360;30.424;2023-04-01T01:51:32;0.3;0;0
74436;PMS7003;62868;52.360;30.424;2023-04-01T01:56:06;0.3;0;0
74436;PMS7003;62868;52.360;30.424;2023-04-01T02:01:10;0;0;0
74436;PMS7003;62868;52.360;30.424;2023-04-01T02:06:34;0.7;0;0
74436;PMS7003;62868;52.360;30.424;2023-04-01T02:11:03;0;0;0
74436;PMS7003;62868;52.360;30.424;2023-04-01T02:16:18;0.3;0;0
74436;PMS7003;62868;52.360;30.424;2023-04-01T02:21:16;0;0;0
74436;PMS7003;62868;52.360;30.424;2023-04-01T02:26:10;0.7;0.3;0
74436;PMS7003;62868;52.360;30.424;2023-04-01T02:31:32;0.3;0.3;0
74436;PMS7003;62868;52.360;30.424;2023-04-01T02:36:02;0.5;0;0
74436;PMS7003;62868;52.360;30.424;2023-04-01T02:41:16;0;0;0
74436;PMS7003;62868;52.360;30.424;2023-04-01T02:45:52;0;0;0
74436;PMS7003;62868;52.360;30.424;2023-04-01T02:51:16;0.3;0;0
74436;PMS7003;62868;52.360;30.424;2023-04-01T02:56:32;0.3;0;0
74436;PMS7003;62868;52.360;30.424;2023-04-01T03:00:52;0;0;0
74436;PMS7003;62868;52.360;30.424;2023-04-01T03:06:16;0.3;0;0
74436;PMS7003;62868;52.360;30.424;2023-04-01T03:11:16;0.3;0;0
74436;PMS7003;62868;52.360;30.424;2023-04-01T03:16:16;0;0;0
74436;PMS7003;62868;52.360;30.424;2023-04-01T03:21:32;1.3;0.7;0.3
74436;PMS7003;62868;52.360;30.424;2023-04-01T03:25:52;0.5;0.5;0
74436;PMS7003;62868;52.360;30.424;2023-04-01T03:31:16;0.3;0;0
74436;PMS7003;62868;52.360;30.424;2023-04-01T03:36:24;1.3;0.3;0.3
74436;PMS7003;62868;52.360;30.424;2023-04-01T03:41:17;0.3;0;0
74436;PMS7003;62868;52.360;30.424;2023-04-01T03:46:32;0;0;0
74436;PMS7003;62868;52.360;30.424;2023-04-01T03:50:52;0.5;0.3;0
74436;PMS7003;62868;52.360;30.424;2023-04-01T03:56:16;1;0;0
74436;PMS7003;62868;52.360;30.424;2023-04-01T04:01:17;0.7;0;0
74436;PMS7003;62868;52.360;30.424;2023-04-01T04:06:17;0.7;0;0
74436;PMS7003;62868;52.360;30.424;2023-04-01T04:11:26;0;0;0
74436;PMS7003;62868;52.360;30.424;2023-04-01T04:16:08;0;0;0
74436;PMS7003;62868;52.360;30.424;2023-04-01T04:21:16;0.7;0;0
74436;PMS7003;62868;52.360;30.424;2023-04-01T04:26:07;0.3;0;0
74436;PMS7003;62868;52.360;30.424;2023-04-01T04:31:18;0.5;0;0
74436;PMS7003;62868;52.360;30.424;2023-04-01T04:36:32;0;0;0
74436;PMS7003;62868;52.360;30.424;2023-04-01T04:40:52;0;0;0
74436;PMS7003;62868;52.360;30.424;2023-04-01T04:46:16;0.3;0;0
74436;PMS7003;62868;52.360;30.424;2023-04-01T04:51:17;0.5;0;0
74436;PMS7003;62868;52.360;30.424;2023-04-01T04:56:17;0.7;0;0
74436;PMS7003;62868;52.360;30.424;2023-04-01T05:01:32;0;0;0
74436;PMS7003;62868;52.360;30.424;2023-04-01T05:06:03;0.3;0.3;0
74436;PMS7003;62868;52.360;30.424;2023-04-01T05:11:17;1;0.7;0
74436;PMS7003;62868;52.360;30.424;2023-04-01T05:16:17;1;0.3;0
74436;PMS7003;62868;52.360;30.424;2023-04-01T05:21:16;1;0.3;0
74436;PMS7003;62868;52.360;30.424;2023-04-01T05:26:18;1;0.5;0
74436;PMS7003;62868;52.360;30.424;2023-04-01T05:30:52;1.7;0.3;0
74436;PMS7003;62868;52.360;30.424;2023-04-01T05:36:32;1;1;0.7
74436;PMS7003;62868;52.360;30.424;2023-04-01T05:41:22;0.3;0.3;0.3
74436;PMS7003;62868;52.360;30.424;2023-04-01T05:46:32;0.5;0.5;0.3
74436;PMS7003;62868;52.360;30.424;2023-04-01T05:51:12;1;1;0.3
74436;PMS7003;62868;52.360;30.424;2023-04-01T06:01:03;1;0.5;0
74436;PMS7003;62868;52.360;30.424;2023-04-01T06:06:23;1.3;1;0.7
74436;PMS7003;62868;52.360;30.424;2023-04-01T06:11:37;0.7;0;0
74436;PMS7003;62868;52.360;30.424;2023-04-01T06:16:12;0.8;0.3;0
74436;PMS7003;62868;52.360;30.424;2023-04-01T06:21:04;2;1.7;1
74436;PMS7003;62868;52.360;30.424;2023-04-01T06:26:20;0.3;0;0
74436;PMS7003;62868;52.360;30.424;2023-04-01T06:31:24;0.7;0.7;0.3
74436;PMS7003;62868;52.360;30.424;2023-04-01T06:36:34;0.8;0.8;0.3
74436;PMS7003;62868;52.360;30.424;2023-04-01T06:41:21;1.3;1;0.3
74436;PMS7003;62868;52.360;30.424;2023-04-01T06:46:05;1;0.7;0.3
74436;PMS7003;62868;52.360;30.424;2023-04-01T06:56:23;1.7;1;0.7
74436;PMS7003;62868;52.360;30.424;2023-04-01T07:01:33;1.3;1.3;1
74436;PMS7003;62868;52.360;30.424;2023-04-01T07:05:52;2.3;2;1
74436;PMS7003;62868;52.360;30.424;2023-04-01T07:11:01;1.5;1.5;1
74436;PMS7003;62868;52.360;30.424;2023-04-01T07:15:55;2;1.7;1
74436;PMS7003;62868;52.360;30.424;2023-04-01T07:21:02;2;1.7;1
74436;PMS7003;62868;52.360;30.424;2023-04-01T07:26:32;2.3;1.7;1
74436;PMS7003;62868;52.360;30.424;2023-04-01T07:31:05;2;1.5;1.3
74436;PMS7003;62868;52.360;30.424;2023-04-01T07:36:03;1.7;1.7;0.7
74436;PMS7003;62868;52.360;30.424;2023-04-01T07:41:12;2.7;2;1.3
74436;PMS7003;62868;52.360;30.424;2023-04-01T07:46:26;3.3;2.3;1.3
74436;PMS7003;62868;52.360;30.424;2023-04-01T07:51:35;3;2.5;1.5
74436;PMS7003;62868;52.360;30.424;2023-04-01T07:56:11;3.3;3;2
74436;PMS7003;62868;52.360;30.424;2023-04-01T08:01:04;3;2.7;2
74436;PMS7003;62868;52.360;30.424;2023-04-01T08:05:54;4;3.7;2.3
74436;PMS7003;62868;52.360;30.424;2023-04-01T08:11:25;4.3;3.5;2.5
74436;PMS7003;62868;52.360;30.424;2023-04-01T08:16:34;4.3;3.7;2.3
74436;PMS7003;62868;52.360;30.424;2023-04-01T08:21:11;5;3.7;2.7
74436;PMS7003;62868;52.360;30.424;2023-04-01T08:26:12;5.7;4.7;3.7
74436;PMS7003;62868;52.360;30.424;2023-04-01T08:31:18;5.5;4.5;3
74436;PMS7003;62868;52.360;30.424;2023-04-01T08:36:21;4.3;3.7;2.7
74436;PMS7003;62868;52.360;30.424;2023-04-01T09:11:15;4;4;2.7
74436;PMS7003;62868;52.360;30.424;2023-04-01T09:16:06;5.3;4.3;3
74436;PMS7003;62868;52.360;30.424;2023-04-01T09:21:17;4;3.7;2.7
74436;PMS7003;62868;52.360;30.424;2023-04-01T09:26:28;5.7;4.3;2.7
74436;PMS7003;62868;52.360;30.424;2023-04-01T09:31:40;5.3;4.7;3
74436;PMS7003;62868;52.360;30.424;2023-04-01T09:36:12;5;4.8;3.5
74436;PMS7003;62868;52.360;30.424;2023-04-01T09:41:13;5.7;4;3
74436;PMS7003;62868;52.360;30.424;2023-04-01T09:46:12;7.3;7;4.7
74436;PMS7003;62868;52.360;30.424;2023-04-01T09:51:25;8.3;7.8;5.3
74436;PMS7003;62868;52.360;30.424;2023-04-01T09:56:44;7.7;6.7;4.3
74436;PMS7003;62868;52.360;30.424;2023-04-01T10:01:34;7.3;5.7;3.7
74436;PMS7003;62868;52.360;30.424;2023-04-01T10:05:58;6.3;5;3.3
74436;PMS7003;62868;52.360;30.424;2023-04-01T10:11:14;5.3;4.5;3.3
74436;PMS7003;62868;52.360;30.424;2023-04-01T10:16:34;6.3;6.3;5
74436;PMS7003;62868;52.360;30.424;2023-04-01T10:26:32;7;6.7;5
74436;PMS7003;62868;52.360;30.424;2023-04-01T10:31:45;10.8;10;6.5
74436;PMS7003;62868;52.360;30.424;2023-04-01T10:36:54;10.3;9.7;6.7
74436;PMS7003;62868;52.360;30.424;2023-04-01T10:41:29;7;6.3;5
74436;PMS7003;62868;52.360;30.424;2023-04-01T10:46:39;6;5.7;4.7
74436;PMS7003;62868;52.360;30.424;2023-04-01T10:51:35;7;6.5;5.3
74436;PMS7003;62868;52.360;30.424;2023-04-01T10:56:07;6.7;5.7;4.7
74436;PMS7003;62868;52.360;30.424;2023-04-01T11:02:12;6.7;6.7;4.7
74436;PMS7003;62868;52.360;30.424;2023-04-01T11:06:27;5.3;5;4.3
74436;PMS7003;62868;52.360;30.424;2023-04-01T11:11:40;4.8;4.3;3.5
74436;PMS7003;62868;52.360;30.424;2023-04-01T11:17:32;6;4.7;4
74436;PMS7003;62868;52.360;30.424;2023-04-01T11:21:50;6;5;4
74436;PMS7003;62868;52.360;30.424;2023-04-01T11:26:09;5.3;5.3;4
74436;PMS7003;62868;52.360;30.424;2023-04-01T11:31:26;5;4.8;3.8
74436;PMS7003;62868;52.360;30.424;2023-04-01T11:36:34;5.3;5;4
74436;PMS7003;62868;52.360;30.424;2023-04-01T11:41:25;4.3;4.3;3
74436;PMS7003;62868;52.360;30.424;2023-04-01T11:46:02;4.8;4.3;3
74436;PMS7003;62868;52.360;30.424;2023-04-01T11:50:57;5.3;4.3;3.7
74436;PMS7003;62868;52.360;30.424;2023-04-01T11:56:34;3.3;3;2.7
74436;PMS7003;62868;52.360;30.424;2023-04-01T12:01:36;4.7;4.3;3.3
74436;PMS7003;62868;52.360;30.424;2023-04-01T12:06:08;4;3.8;3
74436;PMS7003;62868;52.360;30.424;2023-04-01T12:11:10;3.7;3.3;3
74436;PMS7003;62868;52.360;30.424;2023-04-01T12:16:15;4;3.7;2.7
74436;PMS7003;62868;52.360;30.424;2023-04-01T12:21:24;3.7;3;2.3
74436;PMS7003;62868;52.360;30.424;2023-04-01T12:26:35;4;3.8;3
74436;PMS7003;62868;52.360;30.424;2023-04-01T12:31:25;3;2.7;2
74436;PMS7003;62868;52.360;30.424;2023-04-01T12:36:12;2;2;1.7
74436;PMS7003;62868;52.360;30.424;2023-04-01T12:41:10;2.7;2.3;2.3
74436;PMS7003;62868;52.360;30.424;2023-04-01T12:46:22;2.5;2;1.3
74436;PMS7003;62868;52.360;30.424;2023-04-01T12:51:40;2;2;1.3
74436;PMS7003;62868;52.360;30.424;2023-04-01T12:56:23;1.7;1.3;1.3
74436;PMS7003;62868;52.360;30.424;2023-04-01T13:00:56;3.3;3;2
74436;PMS7003;62868;52.360;30.424;2023-04-01T13:06:17;2.3;2.3;1.5
74436;PMS7003;62868;52.360;30.424;2023-04-01T13:11:16;2.3;2;1.3
74436;PMS7003;62868;52.360;30.424;2023-04-01T13:16:33;2.7;2.7;2
74436;PMS7003;62868;52.360;30.424;2023-04-01T13:21:25;1.3;1.3;1.3
74436;PMS7003;62868;52.360;30.424;2023-04-01T13:26:04;2.5;2.3;1.8
74436;PMS7003;62868;52.360;30.424;2023-04-01T13:31:13;3;2.3;2
74436;PMS7003;62868;52.360;30.424;2023-04-01T13:36:24;2;2;2
74436;PMS7003;62868;52.360;30.424;2023-04-01T13:41:37;2.8;2.8;2
74436;PMS7003;62868;52.360;30.424;2023-04-01T13:46:31;3.7;2.7;2
74436;PMS7003;62868;52.360;30.424;2023-04-01T13:51:20;3.5;3.5;2.5
74436;PMS7003;62868;52.360;30.424;2023-04-01T13:55:55;2;2;1.3
74436;PMS7003;62868;52.360;30.424;2023-04-01T14:01:27;1.7;1.7;1.3
74436;PMS7003;62868;52.360;30.424;2023-04-01T14:06:38;1.7;1.7;1.3
74436;PMS7003;62868;52.360;30.424;2023-04-01T14:11:22;2.3;1.8;1.3
74436;PMS7003;62868;52.360;30.424;2023-04-01T14:20:53;2.7;2.3;1.3
74436;PMS7003;62868;52.360;30.424;2023-04-01T14:26:15;2;1.7;1.3
74436;PMS7003;62868;52.360;30.424;2023-04-01T14:31:29;2.3;2;1.7
74436;PMS7003;62868;52.360;30.424;2023-04-01T14:36:42;2;1.5;1.3
74436;PMS7003;62868;52.360;30.424;2023-04-01T14:41:06;2.7;2.3;1.7
74436;PMS7003;62868;52.360;30.424;2023-04-01T14:46:14;2.3;2.3;2
74436;PMS7003;62868;52.360;30.424;2023-04-01T14:51:14;2.3;1.7;1
74436;PMS7003;62868;52.360;30.424;2023-04-01T14:56:29;2;1.3;1.3
74436;PMS7003;62868;52.360;30.424;2023-04-01T15:01:36;2.7;2;1.3
74436;PMS7003;62868;52.360;30.424;2023-04-01T15:05:55;3.7;2.7;2.3
74436;PMS7003;62868;52.360;30.424;2023-04-01T15:11:21;2.7;1.7;1.3
74436;PMS7003;62868;52.360;30.424;2023-04-01T15:16:13;3.5;2.5;2
74436;PMS7003;62868;52.360;30.424;2023-04-01T15:20:56;4.3;3.3;2.7
74436;PMS7003;62868;52.360;30.424;2023-04-01T15:26:36;1.3;1.3;1
74436;PMS7003;62868;52.360;30.424;2023-04-01T15:30:54;1.5;1;0.8
74436;PMS7003;62868;52.360;30.424;2023-04-01T15:36:14;0.7;0.7;0
74436;PMS7003;62868;52.360;30.424;2023-04-01T15:41:11;1;1;0
74436;PMS7003;62868;52.360;30.424;2023-04-01T15:46:25;1.7;1;1
74436;PMS7003;62868;52.360;30.424;2023-04-01T15:51:39;42;33.3;19.7
74436;PMS7003;62868;52.360;30.424;2023-04-01T15:56:15;21;18.3;11.3
74436;PMS7003;62868;52.360;30.424;2023-04-01T16:01:35;4;3.8;2.8
74436;PMS7003;62868;52.360;30.424;2023-04-01T16:06:13;1.3;1;1
74436;PMS7003;62868;52.360;30.424;2023-04-01T16:11:23;2.3;1.3;1
74436;PMS7003;62868;52.360;30.424;2023-04-01T16:16:39;3.7;3.7;2.7
74436;PMS7003;62868;52.360;30.424;2023-04-01T16:21:01;2.5;2.5;1.8
74436;PMS7003;62868;52.360;30.424;2023-04-01T16:26:18;3.7;3.3;2.3
74436;PMS7003;62868;52.360;30.424;2023-04-01T16:30:55;4.3;3.7;2.7
74436;PMS7003;62868;52.360;30.424;2023-04-01T16:36:26;3;2.3;2
74436;PMS7003;62868;52.360;30.424;2023-04-01T16:41:35;4;3.3;2
74436;PMS7003;62868;52.360;30.424;2023-04-01T16:46:27;3.7;3;2
74436;PMS7003;62868;52.360;30.424;2023-04-01T16:51:04;3;2.7;2
74436;PMS7003;62868;52.360;30.424;2023-04-01T16:56:02;2;1.8;1
74436;PMS7003;62868;52.360;30.424;2023-04-01T17:01:38;0.7;0.3;0
74436;PMS7003;62868;52.360;30.424;2023-04-01T17:06:35;0;0;0
74436;PMS7003;62868;52.360;30.424;2023-04-01T17:11:04;0.3;0.3;0
74436;PMS7003;62868;52.360;30.424;2023-04-01T17:16:16;0.3;0;0
74436;PMS7003;62868;52.360;30.424;2023-04-01T17:20:54;1.3;0.3;0
74436;PMS7003;62868;52.360;30.424;2023-04-01T17:26:23;0.7;0;0
74436;PMS7003;62868;52.360;30.424;2023-04-01T17:31:38;0.7;0.3;0.3
74436;PMS7003;62868;52.360;30.424;2023-04-01T17:36:02;1.5;1;0.5
74436;PMS7003;62868;52.360;30.424;2023-04-01T17:41:10;1.7;1;1
74436;PMS7003;62868;52.360;30.424;2023-04-01T17:46:29;1;1;1
74436;PMS7003;62868;52.360;30.424;2023-04-01T17:51:12;1.7;1;1
74436;PMS7003;62868;52.360;30.424;2023-04-01T17:56:38;1.5;0.5;0.5
74436;PMS7003;62868;52.360;30.424;2023-04-01T18:01:30;1.7;1;1
74436;PMS7003;62868;52.360;30.424;2023-04-01T18:06:01;5.7;2.7;2.3
74436;PMS7003;62868;52.360;30.424;2023-04-01T18:10:55;2.7;2.7;2
74436;PMS7003;62868;52.360;30.424;2023-04-01T18:16:11;2.3;1.8;1.3
74436;PMS7003;62868;52.360;30.424;2023-04-01T18:21:39;1.3;1.3;0.7
74436;PMS7003;62868;52.360;30.424;2023-04-01T18:26:23;2;1.3;1
74436;PMS7003;62868;52.360;30.424;2023-04-01T18:31:11;1.3;1;0.7
74436;PMS7003;62868;52.360;30.424;2023-04-01T18:36:04;0.5;0.5;0.3
74436;PMS7003;62868;52.360;30.424;2023-04-01T18:41:26;1.7;1.7;1
74436;PMS7003;62868;52.360;30.424;2023-04-01T18:46:37;1;1;0.3
74436;PMS7003;62868;52.360;30.424;2023-04-01T18:51:24;1;0.8;0.3
74436;PMS7003;62868;52.360;30.424;2023-04-01T18:56:11;1.7;1;0.7
74436;PMS7003;62868;52.360;30.424;2023-04-01T19:00:53;1;0.7;0.3
74436;PMS7003;62868;52.360;30.424;2023-04-01T19:06:22;0.3;0.3;0.3
74436;PMS7003;62868;52.360;30.424;2023-04-01T19:11:34;0.5;0;0
74436;PMS7003;62868;52.360;30.424;2023-04-01T19:16:09;0.3;0;0
74436;PMS7003;62868;52.360;30.424;2023-04-01T19:21:18;0;0;0
74436;PMS7003;62868;52.360;30.424;2023-04-01T19:26:01;0.3;0.3;0
74436;PMS7003;62868;52.360;30.424;2023-04-01T19:31:08;0.8;0.5;0
74436;PMS7003;62868;52.360;30.424;2023-04-01T19:36:36;1;0.7;0.3
74436;PMS7003;62868;52.360;30.424;2023-04-01T19:41:27;2;1.3;1
74436;PMS7003;62868;52.360;30.424;2023-04-01T19:46:11;3.3;2.7;1.7
74436;PMS7003;62868;52.360;30.424;2023-04-01T19:51:03;3.8;2.5;1.8
74436;PMS7003;62868;52.360;30.424;2023-04-01T19:56:23;2.7;2.7;1.7
74436;PMS7003;62868;52.360;30.424;2023-04-01T20:01:32;3.3;3;2.3
74436;PMS7003;62868;52.360;30.424;2023-04-01T20:06:15;7.7;5.3;4
74436;PMS7003;62868;52.360;30.424;2023-04-01T20:11:04;5;4;3.3
74436;PMS7003;62868;52.360;30.424;2023-04-01T20:15:57;6.3;4.3;3
74436;PMS7003;62868;52.360;30.424;2023-04-01T20:21:31;6;4.5;3
74436;PMS7003;62868;52.360;30.424;2023-04-01T20:26:32;5.5;4.8;3
74436;PMS7003;62868;52.360;30.424;2023-04-01T20:31:25;7;5.3;3.7
74436;PMS7003;62868;52.360;30.424;2023-04-01T20:36:03;4.3;4.3;3.7
74436;PMS7003;62868;52.360;30.424;2023-04-01T20:40:51;5;4.5;3.5
74436;PMS7003;62868;52.360;30.424;2023-04-01T20:46:01;5.7;4;3
74436;PMS7003;62868;52.360;30.424;2023-04-01T20:51:34;5.3;4;3.3
74436;PMS7003;62868;52.360;30.424;2023-04-01T20:56:35;6.3;5;3
74436;PMS7003;62868;52.360;30.424;2023-04-01T21:01:03;4.5;4.5;3.3
74436;PMS7003;62868;52.360;30.424;2023-04-01T21:07:28;5.7;5.3;4.3
74436;PMS7003;62868;52.360;30.424;2023-04-01T21:11:25;5.3;5.3;3.3
74436;PMS7003;62868;52.360;30.424;2023-04-01T21:16:36;5.3;5.3;4
74436;PMS7003;62868;52.360;30.424;2023-04-01T21:21:34;4.5;3.8;2.8
74436;PMS7003;62868;52.360;30.424;2023-04-01T21:25:54;2.7;2.3;2
74436;PMS7003;62868;52.360;30.424;2023-04-01T21:30:56;3.7;3.3;2.3
74436;PMS7003;62868;52.360;30.424;2023-04-01T21:36:25;2.7;2.3;1.7
74436;PMS7003;62868;52.360;30.424;2023-04-01T21:41:34;3.3;2.5;2
74436;PMS7003;62868;52.360;30.424;2023-04-01T21:46:27;3.3;3.3;2.3
74436;PMS7003;62868;52.360;30.424;2023-04-01T21:51:14;4.7;3.3;2.7
74436;PMS7003;62868;52.360;30.424;2023-04-01T21:57:02;3.3;3;2
74436;PMS7003;62868;52.360;30.424;2023-04-01T22:00:53;4.8;4.3;3
74436;PMS7003;62868;52.360;30.424;2023-04-01T22:06:31;4;3.3;2.3
74436;PMS7003;62868;52.360;30.424;2023-04-01T22:11:23;3;2.3;2
74436;PMS7003;62868;52.360;30.424;2023-04-01T22:16:11;3;2.8;2.3
74436;PMS7003;62868;52.360;30.424;2023-04-01T22:20:53;4.3;3;2.7
74436;PMS7003;62868;52.360;30.424;2023-04-01T22:26:23;2.3;1.7;1.3
74436;PMS7003;62868;52.360;30.424;2023-04-01T22:31:32;2.7;2.3;1.3
74436;PMS7003;62868;52.360;30.424;2023-04-01T22:36:11;2.5;2.5;1.8
74436;PMS7003;62868;52.360;30.424;2023-04-01T22:41:40;3.7;2.3;2
74436;PMS7003;62868;52.360;30.424;2023-04-01T22:46:23;2;1.7;1
74436;PMS7003;62868;52.360;30.424;2023-04-01T22:51:38;2.3;2.3;1.3
74436;PMS7003;62868;52.360;30.424;2023-04-01T22:56:27;3;2.5;1.8
74436;PMS7003;62868;52.360;30.424;2023-04-01T23:00:58;2.3;2;1.3
74436;PMS7003;62868;52.360;30.424;2023-04-01T23:06:32;2.7;2;1.7
74436;PMS7003;62868;52.360;30.424;2023-04-01T23:10:51;2;2;1
74436;PMS7003;62868;52.360;30.424;2023-04-01T23:16:32;2.8;2;1.8
74436;PMS7003;62868;52.360;30.424;2023-04-01T23:21:23;3;2.7;1.7
74436;PMS7003;62868;52.360;30.424;2023-04-01T23:26:06;4;3.7;2.7
74436;PMS7003;62868;52.360;30.424;2023-04-01T23:31:31;3.3;2.7;2
74436;PMS7003;62868;52.360;30.424;2023-04-01T23:35:59;2.8;1.8;1.3
74436;PMS7003;62868;52.360;30.424;2023-04-01T23:41:31;1.3;1.3;1
74436;PMS7003;62868;52.360;30.424;2023-04-01T23:46:23;2;2;1.7
74436;PMS7003;62868;52.360;30.424;2023-04-01T23:51:09;2.7;2;1.7
74436;PMS7003;62868;52.360;30.424;2023-04-01T23:56:33;2;1.8;1.3
